Map

Track Data

SID SEASON NUMBER BASIN SUBBASIN NAME ISO_TIME NATURE LAT LON WMO_WIND WMO_PRES WMO_AGENCY TRACK_TYPE DIST2LAND LANDFALL IFLAG USA_AGENCY USA_ATCF_ID USA_LAT USA_LON USA_RECORD USA_STATUS USA_WIND USA_PRES USA_SSHS USA_R34_NE USA_R34_SE USA_R34_SW USA_R34_NW USA_R50_NE USA_R50_SE USA_R50_SW USA_R50_NW USA_R64_NE USA_R64_SE USA_R64_SW USA_R64_NW USA_POCI USA_ROCI USA_RMW USA_EYE TOKYO_LAT TOKYO_LON TOKYO_GRADE TOKYO_WIND TOKYO_PRES TOKYO_R50_DIR TOKYO_R50_LONG TOKYO_R50_SHORT TOKYO_R30_DIR TOKYO_R30_LONG TOKYO_R30_SHORT TOKYO_LAND CMA_LAT CMA_LON CMA_CAT CMA_WIND CMA_PRES HKO_LAT HKO_LON HKO_CAT HKO_WIND HKO_PRES NEWDELHI_LAT NEWDELHI_LON NEWDELHI_GRADE NEWDELHI_WIND NEWDELHI_PRES NEWDELHI_CI NEWDELHI_DP NEWDELHI_POCI REUNION_LAT REUNION_LON REUNION_TYPE REUNION_WIND REUNION_PRES REUNION_TNUM REUNION_CI REUNION_RMW REUNION_R34_NE REUNION_R34_SE REUNION_R34_SW REUNION_R34_NW REUNION_R50_NE REUNION_R50_SE REUNION_R50_SW REUNION_R50_NW REUNION_R64_NE REUNION_R64_SE REUNION_R64_SW REUNION_R64_NW BOM_LAT BOM_LON BOM_TYPE BOM_WIND BOM_PRES BOM_TNUM BOM_CI BOM_RMW BOM_R34_NE BOM_R34_SE BOM_R34_SW BOM_R34_NW BOM_R50_NE BOM_R50_SE BOM_R50_SW BOM_R50_NW BOM_R64_NE BOM_R64_SE BOM_R64_SW BOM_R64_NW BOM_ROCI BOM_POCI BOM_EYE BOM_POS_METHOD BOM_PRES_METHOD NADI_LAT NADI_LON NADI_CAT NADI_WIND NADI_PRES WELLINGTON_LAT WELLINGTON_LON WELLINGTON_WIND WELLINGTON_PRES DS824_LAT DS824_LON DS824_STAGE DS824_WIND DS824_PRES TD9636_LAT TD9636_LON TD9636_STAGE TD9636_WIND TD9636_PRES TD9635_LAT TD9635_LON TD9635_WIND TD9635_PRES TD9635_ROCI NEUMANN_LAT NEUMANN_LON NEUMANN_CLASS NEUMANN_WIND NEUMANN_PRES MLC_LAT MLC_LON MLC_CLASS MLC_WIND MLC_PRES USA_GUST BOM_GUST BOM_GUST_PER REUNION_GUST REUNION_GUST_PER USA_SEAHGT USA_SEARAD_NE USA_SEARAD_SE USA_SEARAD_SW USA_SEARAD_NW STORM_SPEED STORM_DIR
1981297N11261 1981 95 EP MM OTIS 1981-10-24 00:00:00 TS 10.7000 -98.8000 30 hurdat_epa main 598 598 O_________O___ hurdat_epa EP151981 10.7000 -98.8000 TD 30 -1 10.7000 -98.8000 1 30 15 281
1981297N11261 1981 95 EP MM OTIS 1981-10-24 03:00:00 TS 10.8497 -99.5676 main 613 603 P_________P___ EP151981 10.8604 -99.5773 TD 30 -1 10.8174 -99.5386 1 30 15 281
1981297N11261 1981 95 EP MM OTIS 1981-10-24 06:00:00 TS 10.9843 -100.286 30 hurdat_epa main 621 621 O_________P___ hurdat_epa EP151981 11.0000 -100.300 TD 30 -1 10.9370 -100.242 1 30 13 281
1981297N11261 1981 95 EP MM OTIS 1981-10-24 09:00:00 TS 11.0963 -100.907 main 633 633 P_________P___ EP151981 11.1074 -100.918 TD 30 -1 11.0631 -100.874 1 30 11 281
1981297N11261 1981 95 EP MM OTIS 1981-10-24 12:00:00 TS 11.2000 -101.400 30 hurdat_epa main 642 638 O_________O___ hurdat_epa EP151981 11.2000 -101.400 TD 30 -1 11.2000 -101.400 1 30 9 283
1981297N11261 1981 95 EP MM OTIS 1981-10-24 15:00:00 TS 11.2960 -101.763 main 645 639 P_________P___ EP151981 11.2774 -101.753 TD 32 -1 11.3517 -101.794 1 32 6 291
1981297N11261 1981 95 EP MM OTIS 1981-10-24 18:00:00 TS 11.4298 -102.018 35 hurdat_epa main 643 631 O_________P___ hurdat_epa EP151981 11.4000 -102.000 TS 35 0 11.5191 -102.073 1 35 6 307
1981297N11261 1981 95 EP MM OTIS 1981-10-24 21:00:00 TS 11.6461 -102.239 main 631 611 P_________P___ EP151981 11.6275 -102.230 TS 37 0 11.7020 -102.265 1 37 6 322
1981297N11261 1981 95 EP MM OTIS 1981-10-25 00:00:00 TS 11.9000 -102.400 40 hurdat_epa main 611 596 O_________O___ hurdat_epa EP151981 11.9000 -102.400 TS 40 0 11.9000 -102.400 2 40 6 330
1981297N11261 1981 95 EP MM OTIS 1981-10-25 03:00:00 TS 12.1457 -102.531 main 596 571 P_________P___ EP151981 12.1575 -102.523 TS 42 0 12.1105 -102.558 2 42 5 337
1981297N11261 1981 95 EP MM OTIS 1981-10-25 06:00:00 TS 12.3837 -102.616 45 hurdat_epa main 571 553 O_________P___ hurdat_epa EP151981 12.4000 -102.600 TS 45 0 12.3348 -102.662 2 45 5 341
1981297N11261 1981 95 EP MM OTIS 1981-10-25 09:00:00 TS 12.5861 -102.688 main 553 532 P_________P___ EP151981 12.5925 -102.680 TS 47 0 12.5668 -102.711 2 47 4 349
1981297N11261 1981 95 EP MM OTIS 1981-10-25 12:00:00 TS 12.8000 -102.700 50 hurdat_epa main 532 496 O_________O___ hurdat_epa EP151981 12.8000 -102.700 TS 50 0 12.8000 -102.700 2 50 5 6
1981297N11261 1981 95 EP MM OTIS 1981-10-25 15:00:00 TS 13.0930 -102.629 main 496 461 P_________P___ EP151981 13.1075 -102.630 TS 50 0 13.0494 -102.625 2 51 6 19
1981297N11261 1981 95 EP MM OTIS 1981-10-25 18:00:00 TS 13.3738 -102.499 50 hurdat_epa main 461 436 O_________P___ hurdat_epa EP151981 13.4000 -102.500 TS 50 0 13.2951 -102.495 2 52 5 30
1981297N11261 1981 95 EP MM OTIS 1981-10-25 21:00:00 TS 13.5589 -102.354 main 436 419 P_________P___ EP151981 13.5725 -102.357 TS 52 0 13.5182 -102.343 2 53 4 42
1981297N11261 1981 95 EP MM OTIS 1981-10-26 00:00:00 TS 13.7000 -102.200 55 hurdat_epa main 419 394 O_________O___ hurdat_epa EP151981 13.7000 -102.200 TS 55 0 13.7000 -102.200 2 55 4 45
1981297N11261 1981 95 EP MM OTIS 1981-10-26 03:00:00 TS 13.8620 -102.045 main 391 377 P_________P___ EP151981 13.8725 -102.028 TS 57 0 13.8303 -102.098 2 57 4 44
1981297N11261 1981 95 EP MM OTIS 1981-10-26 06:00:00 TS 13.9794 -101.928 60 hurdat_epa main 377 377 O_________P___ hurdat_epa EP151981 14.0000 -101.900 TS 60 0 13.9175 -102.012 2 60 2 45
1981297N11261 1981 95 EP MM OTIS 1981-10-26 09:00:00 TS 14.0096 -101.894 main 377 377 P_________P___ EP151981 14.0225 -101.877 TS 62 0 13.9709 -101.945 2 62 0 0
1981297N11261 1981 95 EP MM OTIS 1981-10-26 12:00:00 TS 14.0000 -101.900 65 hurdat_epa main 377 377 O_________O___ hurdat_epa EP151981 14.0000 -101.900 HU 65 1 14.0000 -101.900 3 65 0 0
1981297N11261 1981 95 EP MM OTIS 1981-10-26 15:00:00 TS 14.0003 -101.885 main 377 377 P_________P___ EP151981 14.0000 -101.900 HU 70 1 14.0012 -101.842 3 67 0 0
1981297N11261 1981 95 EP MM OTIS 1981-10-26 18:00:00 TS 13.9962 -101.878 75 hurdat_epa main 377 377 O_________P___ hurdat_epa EP151981 14.0000 -101.900 HU 75 1 13.9848 -101.810 3 70 0 0
1981297N11261 1981 95 EP MM OTIS 1981-10-26 21:00:00 TS 13.9828 -101.864 main 377 377 P_________P___ EP151981 13.9850 -101.878 HU 75 1 13.9761 -101.823 3 72 0 0
1981297N11261 1981 95 EP MM OTIS 1981-10-27 00:00:00 TS 14.0000 -101.900 75 hurdat_epa main 377 370 O_________O___ hurdat_epa EP151981 14.0000 -101.900 HU 75 1 14.0000 -101.900 4 75 2 303
1981297N11261 1981 95 EP MM OTIS 1981-10-27 03:00:00 TS 14.0793 -102.015 main 370 363 P_________P___ EP151981 14.0775 -102.005 HU 72 1 14.0850 -102.044 4 72 4 303
1981297N11261 1981 95 EP MM OTIS 1981-10-27 06:00:00 TS 14.2012 -102.213 70 hurdat_epa main 366 359 O_________P___ hurdat_epa EP151981 14.2000 -102.200 HU 70 1 14.2050 -102.253 4 70 5 300
1981297N11261 1981 95 EP MM OTIS 1981-10-27 09:00:00 TS 14.3437 -102.480 main 367 357 P_________P___ EP151981 14.3425 -102.470 HU 67 1 14.3474 -102.510 4 67 6 298
1981297N11261 1981 95 EP MM OTIS 1981-10-27 12:00:00 TS 14.5000 -102.800 65 hurdat_epa main 362 358 O_________O___ hurdat_epa EP151981 14.5000 -102.800 HU 65 1 14.5000 -102.800 4 65 7 295
1981297N11261 1981 95 EP MM OTIS 1981-10-27 15:00:00 TS 14.6381 -103.137 main 370 366 P_________P___ EP151981 14.6500 -103.150 HU 65 1 14.6022 -103.097 4 65 7 293
1981297N11261 1981 95 EP MM OTIS 1981-10-27 18:00:00 TS 14.7794 -103.480 65 hurdat_epa main 369 366 O_________P___ hurdat_epa EP151981 14.8000 -103.500 HU 65 1 14.7176 -103.421 4 65 7 293
1981297N11261 1981 95 EP MM OTIS 1981-10-27 21:00:00 TS 14.9084 -103.790 main 369 355 P_________P___ EP151981 14.9199 -103.800 HU 65 1 14.8741 -103.759 4 65 7 298
1981297N11261 1981 95 EP MM OTIS 1981-10-28 00:00:00 TS 15.1000 -104.100 65 hurdat_epa main 359 338 O_________O___ hurdat_epa EP151981 15.1000 -104.100 HU 65 1 15.1000 -104.100 4 65 8 308
1981297N11261 1981 95 EP MM OTIS 1981-10-28 03:00:00 TS 15.4058 -104.453 main 341 312 P_________P___ EP151981 15.4050 -104.450 HU 67 1 15.4080 -104.461 4 66 10 316
1981297N11261 1981 95 EP MM OTIS 1981-10-28 06:00:00 TS 15.7970 -104.804 70 hurdat_epa main 312 290 O_________P___ hurdat_epa EP151981 15.8000 -104.800 HU 70 1 15.7878 -104.817 4 67 11 321
1981297N11261 1981 95 EP MM OTIS 1981-10-28 09:00:00 TS 16.2209 -105.138 main 290 269 P_________P___ EP151981 16.2200 -105.137 HU 70 1 16.2237 -105.139 4 68 11 328
1981297N11261 1981 95 EP MM OTIS 1981-10-28 12:00:00 TS 16.7000 -105.400 70 hurdat_epa main 269 235 O_________O___ hurdat_epa EP151981 16.7000 -105.400 HU 70 1 16.7000 -105.400 4 70 11 339
1981297N11261 1981 95 EP MM OTIS 1981-10-28 15:00:00 TS 17.2310 -105.542 main 235 177 P_________P___ EP151981 17.2424 -105.530 HU 70 1 17.1969 -105.577 4 70 11 349
1981297N11261 1981 95 EP MM OTIS 1981-10-28 18:00:00 TS 17.7818 -105.623 70 hurdat_epa main 177 138 O_________P___ hurdat_epa EP151981 17.8000 -105.600 HU 70 1 17.7272 -105.691 4 70 11 351
1981297N11261 1981 95 EP MM OTIS 1981-10-28 21:00:00 TS 18.2978 -105.720 main 138 107 P_________P___ EP151981 18.3075 -105.708 HU 70 1 18.2689 -105.758 4 70 10 351
1981297N11261 1981 95 EP MM OTIS 1981-10-29 00:00:00 TS 18.8000 -105.800 70 hurdat_epa main 107 76 O_________O___ hurdat_epa EP151981 18.8000 -105.800 HU 70 1 18.8000 -105.800 4 70 10 352
1981297N11261 1981 95 EP MM OTIS 1981-10-29 03:00:00 TS 19.3040 -105.862 main 77 47 P_________P___ EP151981 19.3075 -105.865 HU 67 1 19.2934 -105.855 4 65 10 355
1981297N11261 1981 95 EP MM OTIS 1981-10-29 06:00:00 TS 19.7931 -105.897 65 hurdat_epa main 47 30 O_________P___ hurdat_epa EP151981 19.8000 -105.900 HU 65 1 19.7724 -105.888 4 60 10 357
1981297N11261 1981 95 EP MM OTIS 1981-10-29 09:00:00 TS 20.2532 -105.906 main 23 20 P_________P___ EP151981 20.2575 -105.908 HU 57 0 20.2403 -105.902 4 55 9 0
1981297N11261 1981 95 EP MM OTIS 1981-10-29 12:00:00 TS 20.7000 -105.900 50 hurdat_epa main 39 39 O_________O___ hurdat_epa EP151981 20.7000 -105.900 TS 50 0 20.7000 -105.900 2 50 9 0
1981297N11261 1981 95 EP MM OTIS 1981-10-29 15:00:00 TS 21.1511 -105.902 main 61 46 P_________P___ EP151981 21.1500 -105.907 TS 47 0 21.1544 -105.886 2 51 9 1
1981297N11261 1981 95 EP MM OTIS 1981-10-29 18:00:00 TS 21.6013 -105.891 45 hurdat_epa main 46 30 O_________P___ hurdat_epa EP151981 21.6000 -105.900 TS 45 0 21.6050 -105.863 2 52 9 2
1981297N11261 1981 95 EP MM OTIS 1981-10-29 21:00:00 TS 22.0508 -105.853 main 30 0 P_________P___ EP151981 22.0500 -105.860 TS 50 0 22.0532 -105.833 2 53 9 6
1981297N11261 1981 95 EP MM OTIS 1981-10-30 00:00:00 TS 22.5000 -105.800 55 hurdat_epa main 0 O_________O___ hurdat_epa EP151981 22.5000 -105.800 TS 55 0 22.5000 -105.800 2 55 9 7

About IBTrACS Database

This database is a web-friendly format of International Best Track Archive for Climate Stewardship (IBTrACS), a global best track data archive curated by NOAA dating back to 1842.

Updated: 2021-11-26